createdAt,value
2023-01-10T00:02:03.468Z,4.30
2023-01-10T00:04:33.343Z,4.63
2023-01-10T00:07:01.689Z,4.67
2023-01-10T00:09:29.981Z,4.50
2023-01-10T00:12:15.894Z,4.43
2023-01-10T00:14:44.176Z,4.67
2023-01-10T00:17:12.457Z,4.13
2023-01-10T00:19:42.206Z,4.67
2023-01-10T00:22:22.741Z,4.20
2023-01-10T00:24:51.092Z,4.70
2023-01-10T00:27:22.620Z,4.13
2023-01-10T00:29:52.308Z,3.70
2023-01-10T00:32:21.302Z,4.30
2023-01-10T00:34:52.144Z,3.90
2023-01-10T00:37:20.471Z,4.30
2023-01-10T00:39:48.754Z,4.07
2023-01-10T00:43:26.704Z,4.70
2023-01-10T00:45:55.338Z,3.80
2023-01-10T00:48:23.576Z,4.53
2023-01-10T00:50:53.347Z,4.50
2023-01-10T00:53:22.037Z,4.20
2023-01-10T00:55:50.297Z,3.90
2023-01-10T00:58:19.053Z,4.27
2023-01-10T01:00:49.493Z,3.87
2023-01-10T01:03:20.263Z,3.87
2023-01-10T01:05:49.768Z,4.13
2023-01-10T01:08:20.813Z,4.20
2023-01-10T01:10:49.369Z,4.40
2023-01-10T01:13:19.700Z,4.27
2023-01-10T01:15:48.723Z,4.07
2023-01-10T01:18:19.475Z,4.13
2023-01-10T01:20:48.870Z,4.30
2023-01-10T01:23:17.393Z,4.00
2023-01-10T01:25:47.292Z,4.07
2023-01-10T01:28:15.588Z,4.10
2023-01-10T01:30:44.029Z,4.63
2023-01-10T01:33:12.324Z,4.33
2023-01-10T01:35:43.737Z,3.77
2023-01-10T01:38:12.632Z,3.90
2023-01-10T01:40:41.743Z,4.40
2023-01-10T01:43:23.526Z,3.67
2023-01-10T01:45:52.293Z,4.33
2023-01-10T01:48:29.891Z,4.40
2023-01-10T01:51:05.719Z,3.90
2023-01-10T01:53:38.613Z,4.43
2023-01-10T01:56:13.055Z,4.43
2023-01-10T01:58:49.192Z,4.03
2023-01-10T02:01:18.733Z,3.70
2023-01-10T02:03:52.665Z,4.93
2023-01-10T02:06:24.727Z,3.67
2023-01-10T02:09:00.252Z,3.70
2023-01-10T02:11:30.416Z,3.97
2023-01-10T02:14:01.305Z,3.80
2023-01-10T02:16:30.109Z,4.10
2023-01-10T02:18:58.775Z,4.20
2023-01-10T02:21:57.494Z,3.93
2023-01-10T02:25:03.498Z,3.83
2023-01-10T02:27:41.733Z,3.73
2023-01-10T02:30:36.345Z,3.87
2023-01-10T02:33:13.553Z,4.00
2023-01-10T02:36:10.040Z,4.00
2023-01-10T02:38:50.742Z,4.30
2023-01-10T02:41:28.284Z,4.10
2023-01-10T02:44:03.289Z,4.47
2023-01-10T02:46:33.463Z,4.00
2023-01-10T02:49:03.325Z,4.77
2023-01-10T02:51:34.238Z,4.67
2023-01-10T02:54:08.097Z,3.90
2023-01-10T02:57:11.930Z,4.10
2023-01-10T03:00:00.982Z,4.07
2023-01-10T03:02:43.954Z,4.47
2023-01-10T03:05:25.166Z,4.70
2023-01-10T03:07:58.852Z,4.13
2023-01-10T03:10:31.486Z,4.10
2023-01-10T03:13:05.108Z,4.70
2023-01-10T03:15:36.629Z,3.87
2023-01-10T03:18:09.628Z,4.30
2023-01-10T03:20:43.311Z,4.30
2023-01-10T03:23:13.939Z,4.20
2023-01-10T03:25:44.876Z,4.83
2023-01-10T03:28:17.139Z,4.70
2023-01-10T03:30:48.959Z,4.60
2023-01-10T03:33:22.235Z,4.63
2023-01-10T03:36:06.034Z,4.80
2023-01-10T03:38:43.402Z,4.83
2023-01-10T03:41:17.630Z,5.27
2023-01-10T03:44:07.503Z,4.93
2023-01-10T03:46:43.313Z,4.77
2023-01-10T03:49:12.694Z,5.70
2023-01-10T03:51:43.495Z,4.87
2023-01-10T03:54:12.547Z,4.97
2023-01-10T03:56:49.831Z,4.97
2023-01-10T03:59:19.950Z,4.53
2023-01-10T04:01:48.682Z,4.97
2023-01-10T04:04:17.313Z,4.90
2023-01-10T04:06:47.175Z,5.30
2023-01-10T04:09:15.449Z,5.50
2023-01-10T04:11:43.769Z,5.10
2023-01-10T04:14:12.047Z,5.17
2023-01-10T04:16:40.309Z,4.83
2023-01-10T04:19:08.804Z,5.27
2023-01-10T04:21:37.070Z,5.60
2023-01-10T04:24:07.446Z,5.50
2023-01-10T04:26:35.776Z,5.00
2023-01-10T04:29:06.014Z,5.90
2023-01-10T04:31:34.451Z,5.23
2023-01-10T04:34:02.842Z,4.57
2023-01-10T04:36:31.146Z,5.60
2023-01-10T04:38:59.437Z,5.10
2023-01-10T04:41:29.541Z,5.27
2023-01-10T04:43:58.205Z,5.80
2023-01-10T04:46:26.459Z,5.93
2023-01-10T04:48:54.828Z,5.90
2023-01-10T04:51:23.490Z,5.80
2023-01-10T04:53:51.862Z,5.90
2023-01-10T04:56:22.660Z,5.47
2023-01-10T04:58:54.126Z,5.33
2023-01-10T05:01:25.002Z,5.57
2023-01-10T05:03:55.230Z,4.97
2023-01-10T05:06:25.414Z,5.27
2023-01-10T05:08:54.274Z,5.13
2023-01-10T05:11:22.699Z,5.30
2023-01-10T05:13:52.560Z,5.93
2023-01-10T05:16:21.013Z,5.37
2023-01-10T05:18:50.717Z,4.70
2023-01-10T05:21:19.203Z,5.63
2023-01-10T05:23:47.504Z,4.83
2023-01-10T05:26:17.665Z,4.93
2023-01-10T05:28:49.157Z,5.20
2023-01-10T05:31:20.737Z,5.10
2023-01-10T05:33:50.460Z,4.77
2023-01-10T05:36:20.011Z,4.83
2023-01-10T05:38:48.396Z,5.50
2023-01-10T05:41:16.740Z,5.00
2023-01-10T05:43:45.184Z,5.00
2023-01-10T05:46:13.564Z,5.40
2023-01-10T05:48:43.296Z,4.50
2023-01-10T05:51:11.613Z,5.27
2023-01-10T05:53:40.056Z,3.90
2023-01-10T05:56:08.969Z,4.33
2023-01-10T05:58:37.238Z,4.33
2023-01-10T06:01:05.681Z,4.77
2023-01-10T06:03:34.172Z,4.30
2023-01-10T06:06:04.297Z,4.87
2023-01-10T06:08:32.636Z,4.63
2023-01-10T06:11:00.879Z,4.93
2023-01-10T06:13:29.139Z,4.50
2023-01-10T06:15:57.555Z,5.10
2023-01-10T06:18:25.883Z,4.73
2023-01-10T06:20:54.237Z,4.97
2023-01-10T06:23:24.522Z,5.00
2023-01-10T06:25:52.956Z,5.27
2023-01-10T06:28:21.273Z,4.23
2023-01-10T06:30:49.659Z,4.50
2023-01-10T06:33:18.070Z,4.70
2023-01-10T06:35:48.166Z,4.53
2023-01-10T06:38:16.661Z,3.73
2023-01-10T06:40:46.279Z,3.70
2023-01-10T06:43:14.599Z,4.00
2023-01-10T06:45:43.037Z,3.60
2023-01-10T06:48:11.327Z,4.00
2023-01-10T06:50:39.619Z,3.40
2023-01-10T06:53:08.030Z,3.67
2023-01-10T06:55:36.464Z,3.37
2023-01-10T06:58:06.368Z,3.33
2023-01-10T07:00:34.882Z,3.20
2023-01-10T07:03:03.625Z,3.20
2023-01-10T07:05:31.996Z,3.37
2023-01-10T07:08:01.408Z,3.90
2023-01-10T07:10:30.146Z,3.17
2023-01-10T07:12:59.590Z,3.43
2023-01-10T07:15:30.246Z,3.30
2023-01-10T07:17:58.755Z,3.30
2023-01-10T07:20:27.633Z,3.10
2023-01-10T07:22:57.369Z,3.03
2023-01-10T07:25:26.880Z,2.70
2023-01-10T07:27:56.338Z,2.60
2023-01-10T07:30:26.053Z,2.23
2023-01-10T07:32:56.689Z,2.40
2023-01-10T07:35:26.207Z,2.13
2023-01-10T07:37:54.558Z,2.20
2023-01-10T07:40:22.837Z,2.20
2023-01-10T07:42:51.140Z,2.00
2023-01-10T07:45:19.505Z,2.07
2023-01-10T07:47:47.855Z,2.40
2023-01-10T07:50:18.397Z,2.20
2023-01-10T07:52:47.191Z,2.10
2023-01-10T07:55:15.655Z,2.00
2023-01-10T07:57:44.053Z,2.07
2023-01-10T08:00:13.359Z,2.10
2023-01-10T08:02:41.724Z,1.97
2023-01-10T08:05:10.916Z,2.30
2023-01-10T08:07:40.809Z,2.00
2023-01-10T08:10:10.259Z,2.50
2023-01-10T08:12:38.571Z,2.73
2023-01-10T08:15:07.660Z,2.47
2023-01-10T08:17:36.521Z,2.10
2023-01-10T08:20:05.310Z,2.30
2023-01-10T08:22:33.615Z,2.43
2023-01-10T08:25:03.505Z,2.50
2023-01-10T08:27:31.782Z,2.90
2023-01-10T08:30:00.045Z,2.70
2023-01-10T08:32:28.457Z,2.90
2023-01-10T08:34:56.763Z,3.10
2023-01-10T08:37:25.140Z,3.40
2023-01-10T08:39:53.396Z,3.77
2023-01-10T08:42:23.316Z,3.77
2023-01-10T08:44:51.582Z,3.00
2023-01-10T08:47:19.894Z,3.80
2023-01-10T08:49:49.811Z,3.60
2023-01-10T08:52:18.253Z,3.60
2023-01-10T08:54:46.500Z,3.77
2023-01-10T08:57:14.763Z,4.13
2023-01-10T08:59:44.436Z,4.07
2023-01-10T09:02:14.397Z,3.50
2023-01-10T09:04:42.697Z,3.90
2023-01-10T09:07:10.912Z,3.97
2023-01-10T09:09:39.252Z,4.57
2023-01-10T09:12:27.649Z,4.83
2023-01-10T09:14:57.522Z,4.80
2023-01-10T09:17:25.876Z,5.10
2023-01-10T09:19:56.046Z,4.63
2023-01-10T09:22:24.496Z,5.23
2023-01-10T09:24:52.798Z,5.03
2023-01-10T09:27:21.072Z,4.67
2023-01-10T09:29:49.341Z,4.93
2023-01-10T09:32:19.921Z,4.43
2023-01-10T09:34:48.238Z,5.07
2023-01-10T09:37:16.549Z,4.90
2023-01-10T09:39:44.955Z,4.73
2023-01-10T09:42:28.321Z,5.10
2023-01-10T09:45:07.393Z,4.73
2023-01-10T09:47:47.392Z,4.60
2023-01-10T09:50:24.508Z,4.70
2023-01-10T09:52:56.369Z,4.97
2023-01-10T09:55:31.482Z,5.00
2023-01-10T09:58:05.423Z,4.97
2023-01-10T10:00:40.862Z,5.13
2023-01-10T10:03:22.034Z,5.93
2023-01-10T10:05:55.957Z,5.00
2023-01-10T10:08:26.581Z,5.97
2023-01-10T10:11:10.936Z,4.77
2023-01-10T10:13:50.370Z,5.70
2023-01-10T10:16:30.711Z,5.40
2023-01-10T10:19:06.222Z,5.13
2023-01-10T10:21:42.710Z,5.30
2023-01-10T10:24:28.420Z,5.70
2023-01-10T10:26:59.863Z,5.90
2023-01-10T10:30:04.636Z,5.53
2023-01-10T10:32:47.328Z,5.20
2023-01-10T10:35:25.546Z,5.80
2023-01-10T10:37:58.217Z,5.43
2023-01-10T10:40:29.736Z,5.63
2023-01-10T10:43:01.292Z,6.13
2023-01-10T10:45:39.614Z,5.87
2023-01-10T10:48:16.084Z,5.60
2023-01-10T10:50:53.117Z,5.60
2023-01-10T10:53:21.433Z,5.80
2023-01-10T10:55:50.725Z,6.27
2023-01-10T10:58:19.875Z,5.73
2023-01-10T11:00:48.504Z,6.27
2023-01-10T11:03:29.799Z,5.57
2023-01-10T11:06:01.562Z,5.80
2023-01-10T11:08:31.331Z,5.93
2023-01-10T11:11:03.299Z,5.70
2023-01-10T11:13:44.379Z,5.27
2023-01-10T11:16:29.627Z,5.80
2023-01-10T11:19:18.683Z,5.87
2023-01-10T11:21:54.649Z,5.90
2023-01-10T11:24:28.256Z,4.80
2023-01-10T11:26:58.930Z,5.40
2023-01-10T11:29:30.409Z,6.30
2023-01-10T11:31:59.064Z,5.00
2023-01-10T11:34:30.331Z,5.40
2023-01-10T11:37:02.909Z,5.80
2023-01-10T11:39:32.388Z,5.27
2023-01-10T11:42:29.564Z,5.33
2023-01-10T11:45:15.784Z,4.93
2023-01-10T11:47:47.242Z,6.17
2023-01-10T11:50:20.719Z,5.47
2023-01-10T11:52:51.774Z,5.40
2023-01-10T11:55:22.832Z,5.63
2023-01-10T11:58:02.382Z,5.33
2023-01-10T12:00:37.057Z,5.40
2023-01-10T12:03:21.299Z,5.63
2023-01-10T12:05:57.886Z,6.00
2023-01-10T12:08:31.324Z,5.77
2023-01-10T12:11:05.473Z,5.90
2023-01-10T12:13:46.899Z,5.67
2023-01-10T12:16:22.309Z,5.60
2023-01-10T12:18:52.250Z,5.40
2023-01-10T12:21:27.862Z,5.37
2023-01-10T12:24:02.250Z,5.37
2023-01-10T12:26:33.144Z,6.33
2023-01-10T12:29:11.726Z,6.07
2023-01-10T12:31:42.084Z,5.87
2023-01-10T12:34:19.958Z,5.47
2023-01-10T12:36:57.084Z,5.70
2023-01-10T12:39:32.140Z,6.47
2023-01-10T12:42:32.198Z,5.43
2023-01-10T12:45:07.293Z,5.77
2023-01-10T12:47:49.151Z,6.33
2023-01-10T12:50:22.312Z,5.60
2023-01-10T12:52:58.869Z,5.23
2023-01-10T12:55:32.379Z,5.53
2023-01-10T12:58:03.764Z,5.70
2023-01-10T13:00:47.141Z,5.50
2023-01-10T13:03:20.852Z,5.30
2023-01-10T13:05:50.724Z,5.37
2023-01-10T13:08:24.068Z,5.37
2023-01-10T13:10:56.905Z,5.03
2023-01-10T13:13:34.243Z,5.77
2023-01-10T13:16:23.472Z,5.47
2023-01-10T13:19:03.891Z,4.70
2023-01-10T13:21:34.023Z,4.83
2023-01-10T13:24:04.427Z,4.80
2023-01-10T13:26:53.489Z,4.77
2023-01-10T13:29:24.091Z,5.70
2023-01-10T13:31:57.566Z,5.20
2023-01-10T13:34:33.337Z,4.80
2023-01-10T13:37:05.605Z,5.17
2023-01-10T13:39:38.940Z,5.40
2023-01-10T13:42:47.779Z,5.53
2023-01-10T13:45:24.061Z,4.90
2023-01-10T13:48:14.304Z,4.63
2023-01-10T13:50:51.425Z,4.27
2023-01-10T13:53:54.860Z,4.60
2023-01-10T13:56:38.587Z,4.73
2023-01-10T13:59:31.453Z,4.70
2023-01-10T14:02:20.144Z,4.30
2023-01-10T14:04:52.024Z,4.20
2023-01-10T14:07:26.332Z,3.83
2023-01-10T14:10:02.520Z,4.23
2023-01-10T14:12:35.932Z,4.23
2023-01-10T14:15:24.538Z,3.90
2023-01-10T14:18:00.057Z,3.80
2023-01-10T14:20:30.536Z,4.00
2023-01-10T14:23:03.584Z,3.40
2023-01-10T14:25:34.337Z,3.77
2023-01-10T14:28:04.014Z,17.93
2023-01-10T14:30:35.956Z,5.60
2023-01-10T14:33:08.972Z,4.33
2023-01-10T14:35:43.635Z,4.73
2023-01-10T14:38:21.371Z,4.33
2023-01-10T14:40:52.299Z,4.07
2023-01-10T14:43:24.923Z,3.53
2023-01-10T14:46:01.178Z,4.50
2023-01-10T14:48:32.018Z,3.93
2023-01-10T14:51:11.477Z,3.33
2023-01-10T14:53:39.859Z,6.53
2023-01-10T14:56:22.618Z,3.73
2023-01-10T14:58:50.982Z,3.80
2023-01-10T15:01:26.208Z,3.50
2023-01-10T15:03:56.898Z,4.30
2023-01-10T15:06:26.321Z,5.30
2023-01-10T15:08:59.786Z,7.70
2023-01-10T15:11:30.029Z,13.77
2023-01-10T15:14:04.913Z,7.13
2023-01-10T15:16:37.043Z,5.97
2023-01-10T15:19:05.483Z,9.00
2023-01-10T15:21:33.785Z,8.50
2023-01-10T15:24:02.084Z,6.03
2023-01-10T15:26:33.490Z,4.30
2023-01-10T15:29:12.367Z,5.90
2023-01-10T15:31:44.474Z,4.50
2023-01-10T15:34:18.462Z,3.60
2023-01-10T15:36:50.406Z,3.90
2023-01-10T15:39:22.512Z,6.80
2023-01-10T15:41:56.058Z,5.10
2023-01-10T15:44:35.506Z,4.23
2023-01-10T15:47:06.007Z,3.00
2023-01-10T15:49:37.267Z,3.30
2023-01-10T15:52:20.950Z,2.80
2023-01-10T15:54:49.539Z,2.77
2023-01-10T15:57:27.885Z,2.97
2023-01-10T15:59:57.228Z,3.27
2023-01-10T16:02:30.711Z,2.80
2023-01-10T16:05:00.715Z,2.80
2023-01-10T16:07:33.959Z,2.83
2023-01-10T16:10:05.963Z,2.93
2023-01-10T16:12:54.049Z,4.43
2023-01-10T16:15:24.646Z,2.97
2023-01-10T16:17:54.655Z,3.27
2023-01-10T16:20:26.993Z,3.33
2023-01-10T16:22:56.561Z,3.27
2023-01-10T16:25:30.055Z,2.70
2023-01-10T16:27:58.896Z,3.00
2023-01-10T16:30:28.607Z,3.37
2023-01-10T16:32:59.376Z,3.13
2023-01-10T16:35:27.716Z,3.20
2023-01-10T16:37:58.069Z,3.07
2023-01-10T16:40:28.868Z,3.40
2023-01-10T16:43:14.683Z,3.47
2023-01-10T16:45:43.058Z,3.20
2023-01-10T16:48:12.788Z,4.67
2023-01-10T16:50:42.006Z,4.20
2023-01-10T16:53:12.795Z,3.50
2023-01-10T16:55:43.777Z,3.90
2023-01-10T16:58:13.720Z,3.40
2023-01-10T17:00:45.148Z,5.20
2023-01-10T17:03:18.173Z,3.70
2023-01-10T17:05:46.669Z,3.80
2023-01-10T17:08:17.641Z,3.60
2023-01-10T17:10:48.176Z,3.20
2023-01-10T17:13:23.140Z,3.20
2023-01-10T17:15:51.583Z,3.37
2023-01-10T17:18:21.268Z,3.43
2023-01-10T17:20:49.584Z,3.60
2023-01-10T17:23:17.883Z,3.90
2023-01-10T17:25:47.172Z,4.80
2023-01-10T17:28:15.432Z,3.97
2023-01-10T17:30:44.673Z,3.60
2023-01-10T17:33:13.105Z,3.50
2023-01-10T17:35:43.914Z,4.10
2023-01-10T17:38:13.573Z,3.70
2023-01-10T17:40:42.461Z,3.70
2023-01-10T17:43:11.919Z,3.90
2023-01-10T17:45:41.039Z,4.67
2023-01-10T17:48:11.564Z,4.97
2023-01-10T17:50:40.164Z,5.20
2023-01-10T17:53:10.292Z,5.57
2023-01-10T17:55:44.158Z,4.50
2023-01-10T17:58:12.524Z,4.37
2023-01-10T18:00:41.457Z,4.53
2023-01-10T18:03:10.309Z,3.87
2023-01-10T18:05:39.921Z,4.20
2023-01-10T18:08:09.606Z,3.70
2023-01-10T18:10:38.051Z,3.87
2023-01-10T18:13:06.347Z,4.43
2023-01-10T18:15:34.625Z,3.80
2023-01-10T18:18:02.897Z,3.40
2023-01-10T18:20:31.163Z,3.83
2023-01-10T18:23:17.103Z,3.57
2023-01-10T18:25:53.984Z,4.57
2023-01-10T18:28:38.987Z,3.73
2023-01-10T18:31:09.985Z,4.30
2023-01-10T18:33:38.799Z,3.97
2023-01-10T18:36:08.755Z,3.87
2023-01-10T18:38:37.789Z,4.90
2023-01-10T18:41:07.560Z,4.10
2023-01-10T18:43:35.872Z,3.83
2023-01-10T18:46:06.160Z,3.50
2023-01-10T18:48:34.755Z,3.70
2023-01-10T18:51:04.757Z,4.47
2023-01-10T18:53:33.103Z,3.73
2023-01-10T18:56:04.252Z,3.63
2023-01-10T18:58:35.909Z,5.23
2023-01-10T19:01:08.559Z,5.33
2023-01-10T19:03:37.352Z,6.77
2023-01-10T19:06:07.615Z,6.37
2023-01-10T19:08:36.489Z,4.57
2023-01-10T19:11:13.975Z,6.63
2023-01-10T19:13:44.764Z,8.97
2023-01-10T19:16:14.785Z,6.63
2023-01-10T19:18:44.087Z,5.57
2023-01-10T19:21:15.962Z,6.77
2023-01-10T19:23:45.427Z,4.97
2023-01-10T19:26:14.132Z,6.13
2023-01-10T19:28:44.976Z,4.80
2023-01-10T19:31:17.061Z,9.90
2023-01-10T19:33:47.629Z,6.37
2023-01-10T19:36:16.623Z,6.90
2023-01-10T19:38:45.281Z,5.90
2023-01-10T19:41:14.338Z,5.23
2023-01-10T19:43:44.004Z,3.67
2023-01-10T19:46:14.094Z,4.77
2023-01-10T19:48:42.511Z,5.03
2023-01-10T19:51:12.477Z,5.27
2023-01-10T19:53:45.006Z,3.83
2023-01-10T19:56:18.396Z,5.40
2023-01-10T19:58:48.936Z,5.40
2023-01-10T20:01:19.708Z,4.00
2023-01-10T20:03:48.399Z,4.60
2023-01-10T20:06:18.671Z,4.80
2023-01-10T20:08:47.589Z,4.30
2023-01-10T20:11:17.460Z,3.77
2023-01-10T20:13:49.254Z,3.30
2023-01-10T20:16:19.532Z,3.70
2023-01-10T20:18:48.658Z,3.83
2023-01-10T20:21:19.225Z,4.57
2023-01-10T20:23:47.646Z,3.90
2023-01-10T20:26:18.313Z,3.87
2023-01-10T20:28:50.364Z,3.30
2023-01-10T20:31:20.844Z,3.37
2023-01-10T20:33:49.686Z,3.77
2023-01-10T20:36:19.732Z,3.90
2023-01-10T20:38:48.858Z,3.97
2023-01-10T20:41:19.280Z,3.00
2023-01-10T20:43:49.134Z,3.37
2023-01-10T20:46:19.646Z,3.30
2023-01-10T20:48:49.177Z,3.20
2023-01-10T20:51:19.400Z,2.90
2023-01-10T20:53:48.617Z,3.00
2023-01-10T20:56:18.649Z,3.00
2023-01-10T20:58:48.675Z,2.33
2023-01-10T21:01:28.902Z,2.33
2023-01-10T21:04:02.301Z,2.60
2023-01-10T21:06:30.648Z,2.30
2023-01-10T21:08:58.974Z,2.20
2023-01-10T21:11:27.478Z,2.47
2023-01-10T21:13:57.147Z,2.53
2023-01-10T21:16:25.664Z,1.97
2023-01-10T21:18:54.136Z,2.20
2023-01-10T21:21:23.479Z,2.07
2023-01-10T21:23:54.136Z,2.13
2023-01-10T21:26:22.438Z,1.93
2023-01-10T21:28:50.728Z,2.03
2023-01-10T21:31:22.098Z,2.00
2023-01-10T21:33:50.899Z,1.97
2023-01-10T21:36:19.255Z,2.00
2023-01-10T21:38:47.886Z,1.90
2023-01-10T21:41:40.154Z,1.80
2023-01-10T21:48:16.160Z,1.90
2023-01-10T21:50:45.207Z,2.10
2023-01-10T21:53:13.535Z,2.10
2023-01-10T21:55:44.617Z,2.20
2023-01-10T21:58:12.993Z,1.83
2023-01-10T22:00:41.322Z,1.60
2023-01-10T22:03:09.627Z,1.53
2023-01-10T22:05:39.306Z,1.60
2023-01-10T22:08:07.670Z,1.60
2023-01-10T22:10:35.990Z,1.50
2023-01-10T22:13:04.376Z,1.67
2023-01-10T22:15:32.708Z,1.67
2023-01-10T22:18:03.744Z,1.70
2023-01-10T22:20:32.106Z,1.50
2023-01-10T22:23:01.776Z,1.80
2023-01-10T22:25:30.159Z,1.53
2023-01-10T22:27:58.416Z,1.70
2023-01-10T22:30:26.659Z,1.80
2023-01-10T22:32:57.331Z,1.70
2023-01-10T22:35:27.102Z,1.80
2023-01-10T22:37:56.732Z,2.00
2023-01-10T22:40:26.417Z,1.90
2023-01-10T22:42:54.837Z,1.77
2023-01-10T22:45:23.162Z,2.10
2023-01-10T22:47:51.541Z,1.80
2023-01-10T22:50:20.094Z,2.13
2023-01-10T22:52:49.910Z,2.00
2023-01-10T22:55:19.037Z,2.00
2023-01-10T22:57:48.787Z,2.10
2023-01-10T23:00:17.684Z,2.40
2023-01-10T23:02:45.968Z,2.20
2023-01-10T23:05:14.296Z,2.10
2023-01-10T23:07:42.536Z,2.53
2023-01-10T23:10:28.496Z,2.13
2023-01-10T23:12:59.707Z,2.40
2023-01-10T23:15:28.075Z,2.13
2023-01-10T23:17:56.328Z,2.20
2023-01-10T23:20:24.735Z,2.63
2023-01-10T23:22:52.982Z,2.40
2023-01-10T23:25:21.221Z,2.20
2023-01-10T23:27:49.516Z,2.63
2023-01-10T23:30:19.400Z,3.00
2023-01-10T23:32:47.641Z,2.93
2023-01-10T23:35:16.075Z,2.57
2023-01-10T23:37:44.326Z,2.73
2023-01-10T23:40:13.670Z,2.43
2023-01-10T23:42:41.950Z,2.70
2023-01-10T23:45:11.110Z,2.73
2023-01-10T23:47:40.717Z,3.30
2023-01-10T23:50:10.343Z,2.80
2023-01-10T23:52:38.664Z,2.70
2023-01-10T23:55:07.746Z,3.07
2023-01-10T23:57:36.003Z,2.73
